»·PEaware :: SWA1672 KLAS-KSAN

SWA1672 :: KLAS-KSAN

FLIGHT INFORMATION

Flight Status: Arrived
Operator:
Southwest Airlines
More flights by this operator :: More flights under this callsign
Pilot: Jac C. (16067)
Aircraft: BOEING 737-800
(B738)
More flights by this aircraft type
Origin: KLAS McCarran Intl
United States
Destination: KSAN San Diego Intl-Lindbergh
United States
More flights between these airports :: More routes between these airports
Route: +BOACH8 LVELL Q73 MOMAR TOPGN2
File this flight plan on PilotEdge
Remarks: PBN / A1B1C1D1S1S2 DOF / 181206 REG / N806SB OPR / SWA PER / C RMK / TCAS SIMBRIEF
Altitude:
(Current/Filed)
28,000ft
Speed:
(Current/Filed)
478kts
Departed: 06-Dec-18 09:12 AM
Arrived: 06-Dec-18 10:12 AM
Distance/Time
Traveled:
225nm/1:00
Distance/Time
To Go:
Arrived

Flight Plot

Page will automatically refresh every two minutes.

Flight plan parsing failed; only flown route is shown


Map Options




Map Legend


Flown Route
Filed Route
Departure Airport
Arrival Airport
Navaid (VOR, NDB)
Fix

Horizontal Profiles

Position Reports

Time Latitude Longitude Heading Altitude Ground
Speed
06-Dec-18 08:41 36.079927 -115.147117 57 2122ft 0kts
06-Dec-18 08:42 36.079927 -115.147117 57 2122ft 0kts
06-Dec-18 08:43 36.079927 -115.147117 57 2122ft 0kts
06-Dec-18 08:44 36.079927 -115.147117 57 2122ft 0kts
06-Dec-18 08:45 36.079927 -115.147117 57 2122ft 0kts
06-Dec-18 08:46 36.079927 -115.147117 57 2122ft 0kts
06-Dec-18 08:47 36.079927 -115.147117 57 2122ft 0kts
06-Dec-18 08:48 36.079927 -115.147117 57 2122ft 0kts
06-Dec-18 08:49 36.079927 -115.147117 57 2122ft 0kts
06-Dec-18 08:50 36.079927 -115.147117 57 2122ft 0kts
06-Dec-18 08:51 36.079927 -115.147117 57 2122ft 0kts
06-Dec-18 08:52 36.079927 -115.147117 57 2122ft 0kts
06-Dec-18 08:53 36.079927 -115.147117 57 2122ft 0kts
06-Dec-18 08:54 36.079927 -115.147117 57 2122ft 0kts
06-Dec-18 08:55 36.079927 -115.147117 57 2122ft 0kts
06-Dec-18 08:56 36.079927 -115.147117 57 2122ft 0kts
06-Dec-18 08:57 36.079927 -115.147117 57 2122ft 0kts
06-Dec-18 08:58 36.079927 -115.147117 57 2122ft 0kts
06-Dec-18 08:59 36.079876 -115.147214 57 2122ft 2kts
06-Dec-18 09:00 36.079879 -115.147868 143 2122ft 2kts
06-Dec-18 09:01 36.079991 -115.147941 155 2121ft 0kts
06-Dec-18 09:02 36.079991 -115.147941 155 2121ft 0kts
06-Dec-18 09:03 36.079991 -115.147941 155 2121ft 0kts
06-Dec-18 09:04 36.079991 -115.147941 155 2121ft 0kts
06-Dec-18 09:05 36.078767 -115.147216 148 2121ft 13kts
06-Dec-18 09:06 36.078237 -115.142693 90 2122ft 16kts
06-Dec-18 09:07 36.078239 -115.133980 90 2122ft 26kts
06-Dec-18 09:08 36.078260 -115.125497 89 2121ft 22kts
06-Dec-18 09:09 36.077441 -115.121554 140 2122ft 0kts
06-Dec-18 09:11 36.076483 -115.121434 222 2122ft 7kts
06-Dec-18 09:12 36.076390 -115.150915 270 2449ft 158kts
06-Dec-18 09:13 36.076717 -115.212186 270 3933ft 207kts
06-Dec-18 09:14 36.044636 -115.280678 209 5277ft 269kts
06-Dec-18 09:15 35.970328 -115.303872 196 7108ft 291kts
06-Dec-18 09:16 35.895603 -115.310524 182 9944ft 279kts
06-Dec-18 09:17 35.813741 -115.310979 173 11391ft 304kts
06-Dec-18 09:18 35.729340 -115.300674 174 13045ft 308kts
06-Dec-18 09:19 35.643133 -115.295475 181 15134ft 316kts
06-Dec-18 09:20 35.554579 -115.299431 181 17466ft 324kts
06-Dec-18 09:21 35.463807 -115.303074 182 19734ft 332kts
06-Dec-18 09:22 35.370563 -115.306788 182 21805ft 341kts
06-Dec-18 09:23 35.275283 -115.310567 183 23652ft 350kts
06-Dec-18 09:24 35.176872 -115.314460 183 25336ft 358kts
06-Dec-18 09:25 35.076629 -115.318419 184 26842ft 367kts
06-Dec-18 09:26 34.973870 -115.322447 185 28083ft 376kts
06-Dec-18 09:27 34.865988 -115.326740 186 28111ft 403kts
06-Dec-18 09:28 34.755013 -115.342915 201 28108ft 401kts
06-Dec-18 09:29 34.650268 -115.388341 202 28106ft 401kts
06-Dec-18 09:30 34.545587 -115.434068 202 28123ft 401kts
06-Dec-18 09:31 34.440794 -115.479735 202 28123ft 401kts
06-Dec-18 09:31 34.353436 -115.517718 202 28122ft 401kts
06-Dec-18 09:33 34.240258 -115.592430 212 28120ft 399kts
06-Dec-18 09:33 34.158279 -115.642074 200 28118ft 401kts
06-Dec-18 09:34 34.054274 -115.688399 203 28122ft 400kts
06-Dec-18 09:36 33.933848 -115.745174 203 28078ft 400kts
06-Dec-18 09:36 33.847872 -115.786958 204 28085ft 409kts
06-Dec-18 09:37 33.743817 -115.837648 203 28077ft 405kts
06-Dec-18 09:38 33.639456 -115.886452 203 27041ft 396kts
06-Dec-18 09:39 33.538007 -115.938028 214 24430ft 384kts
06-Dec-18 09:40 33.466281 -116.029002 232 24071ft 388kts
06-Dec-18 09:41 33.403546 -116.136758 232 23121ft 394kts
06-Dec-18 09:42 33.338833 -116.239982 219 21891ft 380kts
06-Dec-18 09:43 33.250726 -116.300532 206 19035ft 366kts
06-Dec-18 09:44 33.161013 -116.353346 205 16762ft 356kts
06-Dec-18 09:45 33.073232 -116.404669 206 14578ft 342kts
06-Dec-18 09:46 32.989014 -116.451173 198 12789ft 299kts
06-Dec-18 09:47 32.910721 -116.479249 199 11909ft 290kts
06-Dec-18 09:48 32.834495 -116.507194 201 10901ft 287kts
06-Dec-18 09:49 32.761506 -116.533840 197 9973ft 255kts
06-Dec-18 09:50 32.694643 -116.558407 196 9984ft 261kts
06-Dec-18 09:51 32.641666 -116.613190 247 9997ft 273kts
06-Dec-18 09:52 32.628226 -116.702373 256 9990ft 276kts
06-Dec-18 09:53 32.616638 -116.792390 256 9987ft 275kts
06-Dec-18 09:54 32.607929 -116.881362 258 9162ft 267kts
06-Dec-18 09:55 32.600346 -116.967631 262 8074ft 261kts
06-Dec-18 09:56 32.616665 -117.054974 281 7316ft 271kts
06-Dec-18 09:57 32.634878 -117.140937 281 6312ft 265kts
06-Dec-18 09:58 32.651835 -117.220532 281 5973ft 230kts
06-Dec-18 09:59 32.668274 -117.295533 281 5967ft 235kts
06-Dec-18 10:00 32.684968 -117.370518 281 5964ft 236kts
06-Dec-18 10:01 32.701830 -117.445605 281 5964ft 236kts
06-Dec-18 10:02 32.718760 -117.520900 281 5964ft 236kts
06-Dec-18 10:03 32.754077 -117.577097 11 4961ft 239kts
06-Dec-18 10:04 32.782220 -117.517291 81 4075ft 208kts
06-Dec-18 10:05 32.793894 -117.454639 85 3582ft 186kts
06-Dec-18 10:06 32.783304 -117.396619 108 2981ft 177kts
06-Dec-18 10:07 32.770208 -117.341722 108 2625ft 171kts
06-Dec-18 10:08 32.758359 -117.292320 108 1711ft 139kts
06-Dec-18 10:09 32.747565 -117.247613 108 918ft 142kts
06-Dec-18 10:10 32.736856 -117.203066 108 89ft 139kts
06-Dec-18 10:11 32.731481 -117.185303 275 21ft 14kts
06-Dec-18 10:12 32.732706 -117.190430 286 23ft 18kts
06-Dec-18 10:13 32.732341 -117.194754 212 22ft 9kts
06-Dec-18 10:14 32.731859 -117.195856 246 23ft 0kts

Navigation Log

Ident Type
Flight plan parsing failed, navigation log unavailable